createdAt,value
2023-05-05T00:01:34.991Z,94430.59
2023-05-05T00:04:01.866Z,94435.06
2023-05-05T00:06:28.752Z,94428.09
2023-05-05T00:08:56.149Z,94427.72
2023-05-05T00:11:22.805Z,94418.38
2023-05-05T00:13:49.401Z,94429.00
2023-05-05T00:16:16.018Z,94431.16
2023-05-05T00:18:42.590Z,94426.53
2023-05-05T00:21:09.151Z,94431.34
2023-05-05T00:23:35.764Z,94417.69
2023-05-05T00:26:02.418Z,94428.28
2023-05-05T00:28:29.945Z,94430.66
2023-05-05T00:30:57.527Z,94427.56
2023-05-05T00:33:24.214Z,94424.91
2023-05-05T00:35:51.542Z,94432.00
2023-05-05T00:38:18.121Z,94431.25
2023-05-05T00:40:44.702Z,94426.53
2023-05-05T00:43:12.945Z,94421.16
2023-05-05T00:45:42.749Z,94428.19
2023-05-05T00:48:09.620Z,94425.81
2023-05-05T00:50:36.576Z,94419.59
2023-05-05T00:53:05.027Z,94422.34
2023-05-05T00:55:32.608Z,94425.44
2023-05-05T00:58:00.346Z,94428.09
2023-05-05T01:00:27.649Z,94425.06
2023-05-05T01:02:55.529Z,94428.53
2023-05-05T01:05:24.680Z,94428.53
2023-05-05T01:08:26.906Z,94417.53
2023-05-05T01:11:00.568Z,94430.91
2023-05-05T01:13:39.419Z,94421.91
2023-05-05T01:16:18.108Z,94424.28
2023-05-05T01:19:00.162Z,94423.09
2023-05-05T01:21:36.000Z,94427.13
2023-05-05T01:24:28.598Z,94421.31
2023-05-05T01:27:19.222Z,94414.63
2023-05-05T01:30:22.191Z,94421.00
2023-05-05T01:32:55.230Z,94429.25
2023-05-05T01:35:36.218Z,94433.19
2023-05-05T01:38:11.881Z,94428.47
2023-05-05T01:40:45.280Z,94436.78
2023-05-05T01:43:15.170Z,94434.47
2023-05-05T01:45:45.537Z,94433.66
2023-05-05T01:48:15.257Z,94437.25
2023-05-05T01:50:43.732Z,94432.97
2023-05-05T01:53:11.633Z,94438.84
2023-05-05T01:55:39.603Z,94438.09
2023-05-05T01:58:07.684Z,94442.41
2023-05-05T02:00:34.645Z,94437.44
2023-05-05T02:03:04.577Z,94445.69
2023-05-05T02:05:32.988Z,94441.44
2023-05-05T02:08:00.939Z,94442.66
2023-05-05T02:10:28.566Z,94439.91
2023-05-05T02:12:56.682Z,94442.66
2023-05-05T02:15:24.184Z,94446.97
2023-05-05T02:17:54.712Z,94449.31
2023-05-05T02:20:23.841Z,94446.16
2023-05-05T02:22:50.496Z,94444.25
2023-05-05T02:25:19.854Z,94439.88
2023-05-05T02:27:48.477Z,94439.38
2023-05-05T02:30:19.826Z,94441.34
2023-05-05T02:32:55.216Z,94439.72
2023-05-05T02:35:32.249Z,94440.41
2023-05-05T02:38:05.519Z,94435.66
2023-05-05T02:40:38.542Z,94439.94
2023-05-05T02:43:09.709Z,94448.97
2023-05-05T02:45:36.435Z,94445.38
2023-05-05T02:48:06.877Z,94452.81
2023-05-05T02:50:38.060Z,94443.34
2023-05-05T02:53:26.887Z,94449.22
2023-05-05T02:56:05.579Z,94443.00
2023-05-05T02:58:51.722Z,94448.06
2023-05-05T03:01:57.213Z,94451.59
2023-05-05T03:04:31.938Z,94452.75
2023-05-05T03:07:00.217Z,94453.94
2023-05-05T03:10:03.185Z,94450.00
2023-05-05T03:12:45.992Z,94445.75
2023-05-05T03:15:22.327Z,94447.31
2023-05-05T03:17:51.478Z,94443.38
2023-05-05T03:20:18.991Z,94445.28
2023-05-05T03:22:48.388Z,94444.94
2023-05-05T03:25:15.804Z,94438.31
2023-05-05T03:27:42.561Z,94439.13
2023-05-05T03:30:12.469Z,94447.44
2023-05-05T03:32:46.296Z,94444.81
2023-05-05T03:35:13.981Z,94451.94
2023-05-05T03:37:40.735Z,94445.75
2023-05-05T03:40:08.176Z,94445.75
2023-05-05T03:42:34.926Z,94452.81
2023-05-05T03:45:01.528Z,94459.50
2023-05-05T03:47:28.695Z,94452.47
2023-05-05T03:49:56.465Z,94459.97
2023-05-05T03:52:23.117Z,94466.28
2023-05-05T03:54:49.750Z,94461.94
2023-05-05T03:57:16.708Z,94454.06
2023-05-05T03:59:43.392Z,94445.41
2023-05-05T04:02:09.988Z,94443.41
2023-05-05T04:04:36.674Z,94437.47
2023-05-05T04:07:03.528Z,94436.66
2023-05-05T04:09:30.072Z,94442.91
2023-05-05T04:11:57.003Z,94444.03
2023-05-05T04:14:23.834Z,94445.84
2023-05-05T04:16:51.941Z,94448.19
2023-05-05T04:19:19.375Z,94447.75
2023-05-05T04:21:46.610Z,94450.88
2023-05-05T04:24:13.647Z,94456.72
2023-05-05T04:26:40.536Z,94453.94
2023-05-05T04:29:07.290Z,94457.47
2023-05-05T04:31:34.057Z,94451.44
2023-05-05T04:34:00.935Z,94449.50
2023-05-05T04:36:27.573Z,94455.03
2023-05-05T04:38:54.583Z,94458.84
2023-05-05T04:41:21.474Z,94452.56
2023-05-05T04:43:48.770Z,94443.47
2023-05-05T04:46:15.739Z,94448.59
2023-05-05T04:48:42.679Z,94455.66
2023-05-05T04:51:09.500Z,94451.69
2023-05-05T04:53:37.180Z,94454.34
2023-05-05T04:56:03.877Z,94467.97
2023-05-05T04:58:32.800Z,94471.16
2023-05-05T05:00:59.454Z,94464.41
2023-05-05T05:03:26.284Z,94469.06
2023-05-05T05:05:53.549Z,94472.22
2023-05-05T05:08:20.268Z,94476.97
2023-05-05T05:10:47.354Z,94488.28
2023-05-05T05:13:13.991Z,94478.44
2023-05-05T05:15:42.332Z,94479.50
2023-05-05T05:18:08.935Z,94483.81
2023-05-05T05:20:35.546Z,94477.16
2023-05-05T05:23:02.403Z,94479.22
2023-05-05T05:25:30.757Z,94484.25
2023-05-05T05:28:08.919Z,94484.69
2023-05-05T05:30:38.845Z,94483.91
2023-05-05T05:33:07.113Z,94485.81
2023-05-05T05:35:34.352Z,94487.69
2023-05-05T05:38:01.481Z,94488.94
2023-05-05T05:40:28.417Z,94486.53
2023-05-05T05:42:55.420Z,94491.19
2023-05-05T05:45:23.704Z,94493.94
2023-05-05T05:47:51.136Z,94487.69
2023-05-05T05:50:18.901Z,94495.97
2023-05-05T05:52:45.700Z,94499.13
2023-05-05T05:55:12.301Z,94502.34
2023-05-05T05:57:40.608Z,94505.53
2023-05-05T06:00:09.832Z,94505.94
2023-05-05T06:02:40.986Z,94504.34
2023-05-05T06:05:12.671Z,94516.53
2023-05-05T06:07:39.821Z,94508.28
2023-05-05T06:10:22.967Z,94515.69
2023-05-05T06:12:55.062Z,94521.63
2023-05-05T06:15:22.155Z,94526.38
2023-05-05T06:17:50.375Z,94526.41
2023-05-05T06:20:17.115Z,94527.84
2023-05-05T06:22:43.723Z,94532.91
2023-05-05T06:25:11.208Z,94524.53
2023-05-05T06:27:38.282Z,94520.63
2023-05-05T06:30:06.773Z,94522.59
2023-05-05T06:32:33.572Z,94525.69
2023-05-05T06:35:00.196Z,94519.34
2023-05-05T06:37:26.893Z,94520.44
2023-05-05T06:39:53.536Z,94517.22
2023-05-05T06:42:20.078Z,94525.38
2023-05-05T06:44:46.646Z,94508.88
2023-05-05T06:47:13.214Z,94503.84
2023-05-05T06:49:42.626Z,94496.44
2023-05-05T06:52:09.205Z,94505.06
2023-05-05T06:54:35.805Z,94509.69
2023-05-05T06:57:02.379Z,94515.66
2023-05-05T06:59:28.999Z,94510.56
2023-05-05T07:01:56.591Z,94512.06
2023-05-05T07:04:23.234Z,94521.84
2023-05-05T07:06:49.830Z,94523.16
2023-05-05T07:09:17.495Z,94520.91
2023-05-05T07:11:44.243Z,94526.25
2023-05-05T07:14:10.802Z,94521.66
2023-05-05T07:16:37.528Z,94520.59
2023-05-05T07:19:07.030Z,94519.00
2023-05-05T07:21:34.182Z,94527.22
2023-05-05T07:24:01.871Z,94518.84
2023-05-05T07:26:28.490Z,94516.91
2023-05-05T07:28:58.722Z,94526.47
2023-05-05T07:31:26.564Z,94519.41
2023-05-05T07:33:53.623Z,94515.97
2023-05-05T07:36:20.414Z,94509.09
2023-05-05T07:38:46.947Z,94512.16
2023-05-05T07:41:13.513Z,94517.69
2023-05-05T07:43:44.057Z,94505.06
2023-05-05T07:46:11.317Z,94501.00
2023-05-05T07:48:39.104Z,94502.63
2023-05-05T07:51:05.687Z,94503.66
2023-05-05T07:53:32.437Z,94499.66
2023-05-05T07:55:59.063Z,94495.19
2023-05-05T07:58:25.701Z,94498.19
2023-05-05T08:00:52.269Z,94491.00
2023-05-05T08:03:21.588Z,94498.00
2023-05-05T08:05:50.557Z,94496.75
2023-05-05T08:08:18.292Z,94494.69
2023-05-05T08:10:44.826Z,94493.19
2023-05-05T08:13:11.672Z,94479.59
2023-05-05T08:15:38.248Z,94478.88
2023-05-05T08:18:04.907Z,94481.47
2023-05-05T08:20:31.607Z,94487.38
2023-05-05T08:22:58.236Z,94487.28
2023-05-05T08:25:26.837Z,94490.28
2023-05-05T08:27:53.667Z,94488.75
2023-05-05T08:30:22.194Z,94486.28
2023-05-05T08:32:48.800Z,94487.56
2023-05-05T08:35:15.383Z,94486.50
2023-05-05T08:37:41.974Z,94486.25
2023-05-05T08:40:12.181Z,94478.72
2023-05-05T08:42:39.594Z,94478.72
2023-05-05T08:45:08.541Z,94472.63
2023-05-05T08:47:36.816Z,94478.84
2023-05-05T08:50:05.685Z,94474.16
2023-05-05T08:52:40.328Z,94480.75
2023-05-05T08:55:18.000Z,94474.97
2023-05-05T08:58:01.035Z,94472.38
2023-05-05T09:00:28.027Z,94471.28
2023-05-05T09:02:56.935Z,94473.09
2023-05-05T09:05:24.338Z,94481.94
2023-05-05T09:07:51.327Z,94478.63
2023-05-05T09:10:18.683Z,94490.03
2023-05-05T09:12:45.340Z,94486.31
2023-05-05T09:15:14.652Z,94488.84
2023-05-05T09:17:42.187Z,94485.63
2023-05-05T09:20:10.859Z,94485.28
2023-05-05T09:22:39.694Z,94486.38
2023-05-05T09:25:08.726Z,94483.47
2023-05-05T09:27:41.012Z,94475.25
2023-05-05T09:30:09.528Z,94470.13
2023-05-05T09:32:49.021Z,94465.00
2023-05-05T09:35:16.711Z,94460.72
2023-05-05T09:37:43.577Z,94460.28
2023-05-05T09:40:12.799Z,94456.03
2023-05-05T09:42:40.523Z,94455.69
2023-05-05T09:45:27.955Z,94451.97
2023-05-05T09:47:59.099Z,94451.69
2023-05-05T09:50:30.018Z,94453.84
2023-05-05T09:53:03.622Z,94447.50
2023-05-05T09:55:33.267Z,94443.59
2023-05-05T09:58:23.668Z,94439.97
2023-05-05T10:00:50.982Z,94437.38
2023-05-05T10:03:18.112Z,94426.69
2023-05-05T10:05:52.722Z,94422.09
2023-05-05T10:08:21.151Z,94440.66
2023-05-05T10:10:51.840Z,94426.19
2023-05-05T10:13:20.685Z,94426.31
2023-05-05T10:15:52.344Z,94425.81
2023-05-05T10:18:23.568Z,94419.56
2023-05-05T10:21:02.256Z,94429.91
2023-05-05T10:23:34.595Z,94426.25
2023-05-05T10:26:03.772Z,94418.75
2023-05-05T10:28:34.137Z,94417.06
2023-05-05T10:31:04.259Z,94412.63
2023-05-05T10:34:03.361Z,94420.06
2023-05-05T10:36:31.670Z,94408.03
2023-05-05T10:38:59.848Z,94412.34
2023-05-05T10:41:26.984Z,94409.94
2023-05-05T10:43:58.608Z,94398.78
2023-05-05T10:46:27.369Z,94394.03
2023-05-05T10:51:48.107Z,94382.75
2023-05-05T10:54:28.128Z,94382.91
2023-05-05T10:56:55.623Z,94376.09
2023-05-05T10:59:37.491Z,94380.06
2023-05-05T11:02:26.797Z,94373.41
2023-05-05T11:05:14.902Z,94381.34
2023-05-05T11:07:42.552Z,94384.38
2023-05-05T11:10:11.412Z,94376.41
2023-05-05T11:13:10.109Z,94366.56
2023-05-05T11:15:38.039Z,94367.28
2023-05-05T11:18:07.968Z,94363.97
2023-05-05T11:20:39.594Z,94365.00
2023-05-05T11:23:06.314Z,94358.75
2023-05-05T11:25:42.121Z,94352.63
2023-05-05T11:28:09.941Z,94353.78
2023-05-05T11:30:57.256Z,94360.72
2023-05-05T11:33:38.436Z,94360.72
2023-05-05T11:36:14.621Z,94353.09
2023-05-05T11:38:55.716Z,94357.97
2023-05-05T11:41:34.044Z,94363.09
2023-05-05T11:44:15.275Z,94345.69
2023-05-05T11:47:04.806Z,94336.59
2023-05-05T11:49:38.782Z,94335.41
2023-05-05T11:52:10.437Z,94335.69
2023-05-05T11:54:40.487Z,94339.19
2023-05-05T11:57:08.529Z,94334.09
2023-05-05T11:59:37.326Z,94329.22
2023-05-05T12:02:04.509Z,94330.41
2023-05-05T12:04:31.636Z,94321.56
2023-05-05T12:06:59.396Z,94325.91
2023-05-05T12:09:27.114Z,94318.03
2023-05-05T12:11:58.723Z,94309.09
2023-05-05T12:14:26.089Z,94299.09
2023-05-05T12:17:04.309Z,94303.28
2023-05-05T12:19:33.405Z,94307.13
2023-05-05T12:22:04.543Z,94306.66
2023-05-05T12:24:31.307Z,94303.47
2023-05-05T12:27:08.163Z,94306.56
2023-05-05T12:29:34.808Z,94304.72
2023-05-05T12:32:01.495Z,94306.13
2023-05-05T12:34:28.313Z,94308.59
2023-05-05T12:36:55.294Z,94297.56
2023-05-05T12:39:22.383Z,94304.88
2023-05-05T12:41:49.552Z,94297.50
2023-05-05T12:44:16.137Z,94292.75
2023-05-05T12:46:49.265Z,94295.84
2023-05-05T12:49:17.057Z,94302.13
2023-05-05T12:51:54.878Z,94297.78
2023-05-05T12:54:23.816Z,94286.25
2023-05-05T12:56:50.630Z,94270.38
2023-05-05T12:59:24.165Z,94277.78
2023-05-05T13:01:55.189Z,94275.41
2023-05-05T13:04:24.022Z,94278.53
2023-05-05T13:07:08.754Z,94270.41
2023-05-05T13:09:35.534Z,94258.69
2023-05-05T13:12:03.144Z,94251.31
2023-05-05T13:14:32.931Z,94257.97
2023-05-05T13:16:59.769Z,94247.16
2023-05-05T13:19:27.630Z,94246.00
2023-05-05T13:21:55.670Z,94234.09
2023-05-05T13:24:34.497Z,94228.63
2023-05-05T13:27:05.652Z,94240.38
2023-05-05T13:29:33.218Z,94238.66
2023-05-05T13:32:00.879Z,94238.09
2023-05-05T13:34:27.614Z,94240.16
2023-05-05T13:36:54.284Z,94224.28
2023-05-05T13:39:20.971Z,94215.03
2023-05-05T13:41:47.717Z,94208.09
2023-05-05T13:44:14.386Z,94208.16
2023-05-05T13:46:42.466Z,94201.47
2023-05-05T13:49:09.051Z,94195.66
2023-05-05T13:51:36.005Z,94182.31
2023-05-05T13:54:02.997Z,94184.16
2023-05-05T13:56:29.942Z,94178.59
2023-05-05T13:58:56.549Z,94170.44
2023-05-05T14:01:23.368Z,94175.84
2023-05-05T14:03:50.346Z,94185.66
2023-05-05T14:06:17.140Z,94179.16
2023-05-05T14:08:43.807Z,94174.31
2023-05-05T14:11:10.682Z,94164.59
2023-05-05T14:13:37.237Z,94157.53
2023-05-05T14:16:04.262Z,94161.06
2023-05-05T14:18:30.933Z,94166.19
2023-05-05T14:20:57.589Z,94162.38
2023-05-05T14:23:24.185Z,94164.66
2023-05-05T14:25:50.970Z,94147.81
2023-05-05T14:28:17.580Z,94143.13
2023-05-05T14:30:44.196Z,94128.59
2023-05-05T14:33:10.738Z,94134.41
2023-05-05T14:35:37.375Z,94143.25
2023-05-05T14:38:04.056Z,94156.28
2023-05-05T14:40:31.334Z,94169.41
2023-05-05T14:42:58.005Z,94157.03
2023-05-05T14:45:24.658Z,94146.75
2023-05-05T14:47:51.447Z,94136.19
2023-05-05T14:50:18.044Z,94126.59
2023-05-05T14:52:44.760Z,94131.50
2023-05-05T14:55:11.960Z,94126.38
2023-05-05T14:57:39.019Z,94144.94
2023-05-05T15:00:09.456Z,94169.25
2023-05-05T15:02:37.377Z,94209.75
2023-05-05T15:05:05.353Z,94230.81
2023-05-05T15:07:32.160Z,94268.44
2023-05-05T15:09:58.880Z,94320.31
2023-05-05T15:12:26.056Z,94307.75
2023-05-05T15:14:52.801Z,94305.56
2023-05-05T15:17:19.517Z,94343.94
2023-05-05T15:19:46.110Z,94362.91
2023-05-05T15:22:12.660Z,94385.50
2023-05-05T15:24:39.244Z,94401.06
2023-05-05T15:27:05.896Z,94402.34
2023-05-05T15:29:32.507Z,94401.53
2023-05-05T15:31:59.196Z,94400.28
2023-05-05T15:34:26.224Z,94394.78
2023-05-05T15:36:52.772Z,94387.28
2023-05-05T15:39:20.535Z,94402.28
2023-05-05T15:41:47.106Z,94396.72
2023-05-05T15:44:41.778Z,94395.38
2023-05-05T15:47:10.777Z,94388.19
2023-05-05T15:49:37.669Z,94386.22
2023-05-05T15:52:04.596Z,94385.50
2023-05-05T15:54:31.194Z,94380.75
2023-05-05T15:56:57.948Z,94385.94
2023-05-05T15:59:24.537Z,94397.91
2023-05-05T16:01:51.167Z,94395.00
2023-05-05T16:04:17.830Z,94397.84
2023-05-05T16:06:44.391Z,94388.63
2023-05-05T16:09:10.965Z,94381.03
2023-05-05T16:11:37.634Z,94369.16
2023-05-05T16:14:04.345Z,94355.31
2023-05-05T16:16:31.188Z,94363.94
2023-05-05T16:18:57.725Z,94354.44
2023-05-05T16:21:24.378Z,94353.88
2023-05-05T16:23:51.304Z,94341.00
2023-05-05T16:26:17.906Z,94348.91
2023-05-05T16:28:44.501Z,94341.75
2023-05-05T16:31:11.263Z,94324.69
2023-05-05T16:33:43.015Z,94328.31
2023-05-05T16:36:13.137Z,94323.38
2023-05-05T16:38:40.199Z,94321.81
2023-05-05T16:41:07.261Z,94327.19
2023-05-05T16:43:34.005Z,94326.06
2023-05-05T16:46:00.691Z,94325.47
2023-05-05T16:48:27.297Z,94321.31
2023-05-05T16:50:56.066Z,94327.88
2023-05-05T16:53:22.655Z,94325.47
2023-05-05T16:55:53.219Z,94330.69
2023-05-05T16:58:25.382Z,94327.44
2023-05-05T17:00:52.627Z,94331.50
2023-05-05T17:03:20.388Z,94326.47
2023-05-05T17:05:50.152Z,94313.88
2023-05-05T17:08:17.454Z,94312.75
2023-05-05T17:10:45.554Z,94308.03
2023-05-05T17:13:13.983Z,94308.63
2023-05-05T17:15:41.482Z,94309.03
2023-05-05T17:18:08.661Z,94311.19
2023-05-05T17:20:36.354Z,94308.59
2023-05-05T17:23:03.704Z,94310.31
2023-05-05T17:25:31.103Z,94312.06
2023-05-05T17:27:58.013Z,94304.50
2023-05-05T17:30:24.954Z,94300.81
2023-05-05T17:32:51.904Z,94300.94
2023-05-05T17:35:18.780Z,94294.59
2023-05-05T17:37:45.579Z,94300.13
2023-05-05T17:40:12.411Z,94297.13
2023-05-05T17:42:39.052Z,94297.19
2023-05-05T17:45:06.479Z,94296.06
2023-05-05T17:47:33.284Z,94303.59
2023-05-05T17:49:59.879Z,94304.53
2023-05-05T17:52:27.187Z,94306.47
2023-05-05T17:54:53.776Z,94310.50
2023-05-05T17:57:23.684Z,94316.13
2023-05-05T17:59:51.963Z,94322.00
2023-05-05T18:02:19.544Z,94327.63
2023-05-05T18:04:46.558Z,94323.59
2023-05-05T18:07:14.739Z,94326.84
2023-05-05T18:09:41.915Z,94324.59
2023-05-05T18:12:08.572Z,94328.19
2023-05-05T18:14:35.747Z,94322.00
2023-05-05T18:17:02.557Z,94324.88
2023-05-05T18:19:29.240Z,94324.97
2023-05-05T18:21:55.778Z,94331.81
2023-05-05T18:24:22.506Z,94334.59
2023-05-05T18:26:54.557Z,94336.66
2023-05-05T18:29:22.009Z,94335.56
2023-05-05T18:31:51.445Z,94347.13
2023-05-05T18:34:19.084Z,94344.47
2023-05-05T18:36:46.424Z,94342.19
2023-05-05T18:39:14.050Z,94348.91
2023-05-05T18:41:40.972Z,94345.13
2023-05-05T18:44:10.666Z,94354.22
2023-05-05T18:46:37.487Z,94355.53
2023-05-05T18:49:07.390Z,94355.56
2023-05-05T18:51:35.125Z,94353.25
2023-05-05T18:54:01.722Z,94364.66
2023-05-05T18:56:28.265Z,94375.63
2023-05-05T18:58:54.978Z,94370.19
2023-05-05T19:01:22.062Z,94381.47
2023-05-05T19:03:49.597Z,94385.41
2023-05-05T19:06:17.535Z,94386.97
2023-05-05T19:08:45.594Z,94384.53
2023-05-05T19:11:14.539Z,94392.00
2023-05-05T19:13:41.522Z,94386.44
2023-05-05T19:16:10.830Z,94392.22
2023-05-05T19:18:37.622Z,94396.19
2023-05-05T19:21:04.466Z,94403.59
2023-05-05T19:23:31.776Z,94413.75
2023-05-05T19:25:58.301Z,94413.91
2023-05-05T19:28:24.887Z,94415.78
2023-05-05T19:30:52.127Z,94419.28
2023-05-05T19:33:20.894Z,94418.81
2023-05-05T19:35:47.449Z,94416.75
2023-05-05T19:38:14.329Z,94421.03
2023-05-05T19:40:44.029Z,94424.09
2023-05-05T19:43:10.687Z,94420.97
2023-05-05T19:45:37.519Z,94431.13
2023-05-05T19:48:07.298Z,94422.97
2023-05-05T19:50:33.834Z,94420.25
2023-05-05T19:53:03.568Z,94424.66
2023-05-05T19:55:30.332Z,94423.47
2023-05-05T19:57:57.476Z,94430.50
2023-05-05T20:00:24.233Z,94424.63
2023-05-05T20:02:51.019Z,94428.16
2023-05-05T20:05:18.073Z,94431.75
2023-05-05T20:07:46.333Z,94431.28
2023-05-05T20:10:16.640Z,94421.47
2023-05-05T20:12:47.923Z,94425.78
2023-05-05T20:15:19.254Z,94422.25
2023-05-05T20:17:46.990Z,94428.97
2023-05-05T20:20:19.891Z,94426.69
2023-05-05T20:22:47.208Z,94435.69
2023-05-05T20:25:19.630Z,94432.84
2023-05-05T20:27:46.464Z,94433.72
2023-05-05T20:30:15.463Z,94433.38
2023-05-05T20:32:42.008Z,94440.88
2023-05-05T20:35:09.280Z,94444.91
2023-05-05T20:37:35.870Z,94446.84
2023-05-05T20:40:02.478Z,94441.22
2023-05-05T20:42:29.695Z,94447.78
2023-05-05T20:44:56.680Z,94450.16
2023-05-05T20:47:24.094Z,94456.00
2023-05-05T20:49:54.684Z,94449.69
2023-05-05T20:52:21.444Z,94460.34
2023-05-05T20:54:48.129Z,94450.50
2023-05-05T20:57:14.847Z,94453.25
2023-05-05T20:59:41.434Z,94455.19
2023-05-05T21:02:08.454Z,94453.28
2023-05-05T21:04:35.236Z,94452.94
2023-05-05T21:07:01.907Z,94452.44
2023-05-05T21:09:28.907Z,94457.53
2023-05-05T21:11:55.510Z,94449.66
2023-05-05T21:14:22.136Z,94453.16
2023-05-05T21:16:48.785Z,94454.78
2023-05-05T21:19:16.434Z,94449.31
2023-05-05T21:21:43.046Z,94453.66
2023-05-05T21:24:09.689Z,94449.34
2023-05-05T21:26:36.278Z,94449.66
2023-05-05T21:29:02.904Z,94450.78
2023-05-05T21:31:29.504Z,94451.97
2023-05-05T21:33:56.078Z,94443.31
2023-05-05T21:36:22.631Z,94442.16
2023-05-05T21:38:49.494Z,94442.50
2023-05-05T21:41:16.744Z,94450.66
2023-05-05T21:43:43.299Z,94440.91
2023-05-05T21:46:10.298Z,94432.25
2023-05-05T21:48:38.864Z,94435.78
2023-05-05T21:51:06.694Z,94436.25
2023-05-05T21:53:33.390Z,94426.44
2023-05-05T21:55:59.913Z,94429.47
2023-05-05T21:58:26.554Z,94425.63
2023-05-05T22:00:53.144Z,94414.28
2023-05-05T22:03:19.764Z,94415.84
2023-05-05T22:05:46.386Z,94419.03
2023-05-05T22:08:13.013Z,94426.56
2023-05-05T22:10:39.605Z,94424.34
2023-05-05T22:13:06.188Z,94424.03
2023-05-05T22:15:42.675Z,94419.59
2023-05-05T22:18:13.007Z,94421.56
2023-05-05T22:20:40.568Z,94429.41
2023-05-05T22:23:07.292Z,94432.91
2023-05-05T22:25:33.855Z,94432.91
2023-05-05T22:28:00.520Z,94436.78
2023-05-05T22:30:27.054Z,94431.22
2023-05-05T22:32:53.665Z,94436.78
2023-05-05T22:35:20.239Z,94435.34
2023-05-05T22:37:46.774Z,94430.34
2023-05-05T22:40:13.517Z,94421.72
2023-05-05T22:42:40.624Z,94426.13
2023-05-05T22:45:08.608Z,94425.78
2023-05-05T22:47:35.414Z,94421.50
2023-05-05T22:50:02.020Z,94428.19
2023-05-05T22:52:29.013Z,94422.31
2023-05-05T22:54:56.064Z,94422.72
2023-05-05T22:57:22.636Z,94423.47
2023-05-05T22:59:50.027Z,94420.25
2023-05-05T23:02:16.586Z,94415.53
2023-05-05T23:04:44.603Z,94411.59
2023-05-05T23:07:12.635Z,94419.03
2023-05-05T23:09:39.492Z,94411.13
2023-05-05T23:12:06.257Z,94417.47
2023-05-05T23:14:32.884Z,94419.81
2023-05-05T23:16:59.706Z,94420.66
2023-05-05T23:19:26.482Z,94417.88
2023-05-05T23:21:53.847Z,94413.16
2023-05-05T23:24:21.500Z,94417.91
2023-05-05T23:26:48.041Z,94417.28
2023-05-05T23:29:14.603Z,94412.97
2023-05-05T23:31:41.475Z,94414.13
2023-05-05T23:34:08.535Z,94414.19
2023-05-05T23:36:35.512Z,94406.81
2023-05-05T23:39:02.105Z,94411.44
2023-05-05T23:41:28.720Z,94413.00
2023-05-05T23:43:56.009Z,94409.03
2023-05-05T23:46:22.863Z,94407.47
2023-05-05T23:48:50.416Z,94407.50
2023-05-05T23:51:17.559Z,94406.69
2023-05-05T23:53:44.091Z,94400.41
2023-05-05T23:56:10.808Z,94404.31
2023-05-05T23:58:37.451Z,94398.00
